createdAt,value
2023-02-15T00:01:53.309Z,80.40
2023-02-15T00:04:22.426Z,80.50
2023-02-15T00:06:49.512Z,80.40
2023-02-15T00:09:16.306Z,80.50
2023-02-15T00:11:51.508Z,80.50
2023-02-15T00:14:23.975Z,80.30
2023-02-15T00:16:53.143Z,80.30
2023-02-15T00:19:20.622Z,81.30
2023-02-15T00:21:47.496Z,81.20
2023-02-15T00:24:15.841Z,81.20
2023-02-15T00:26:42.743Z,80.60
2023-02-15T00:29:10.054Z,80.50
2023-02-15T00:31:36.927Z,80.50
2023-02-15T00:34:04.166Z,80.50
2023-02-15T00:36:30.935Z,80.50
2023-02-15T00:38:57.656Z,80.50
2023-02-15T00:41:25.027Z,80.40
2023-02-15T00:43:51.742Z,80.50
2023-02-15T00:46:18.463Z,80.60
2023-02-15T00:48:45.171Z,80.50
2023-02-15T00:51:11.862Z,80.50
2023-02-15T00:53:38.601Z,80.40
2023-02-15T00:56:05.429Z,80.20
2023-02-15T00:58:32.205Z,80.20
2023-02-15T01:01:22.182Z,80.00
2023-02-15T01:03:49.054Z,79.90
2023-02-15T01:06:16.658Z,80.00
2023-02-15T01:08:44.874Z,79.90
2023-02-15T01:11:15.504Z,79.90
2023-02-15T01:13:42.553Z,80.70
2023-02-15T01:16:09.473Z,79.90
2023-02-15T01:18:36.534Z,79.80
2023-02-15T01:21:14.795Z,79.90
2023-02-15T01:23:42.829Z,79.80
2023-02-15T01:26:10.053Z,79.80
2023-02-15T01:28:36.769Z,80.00
2023-02-15T01:31:10.887Z,79.80
2023-02-15T01:33:37.891Z,79.80
2023-02-15T01:36:05.064Z,79.70
2023-02-15T01:38:31.789Z,79.60
2023-02-15T01:41:19.341Z,79.60
2023-02-15T01:43:48.523Z,79.40
2023-02-15T01:46:16.352Z,79.50
2023-02-15T01:48:47.907Z,79.70
2023-02-15T01:51:15.253Z,79.80
2023-02-15T01:53:44.748Z,79.80
2023-02-15T01:56:20.310Z,79.80
2023-02-15T01:58:47.068Z,79.80
2023-02-15T02:01:13.802Z,79.80
2023-02-15T02:04:15.892Z,79.60
2023-02-15T02:06:42.613Z,79.50
2023-02-15T02:09:09.426Z,79.60
2023-02-15T02:11:36.181Z,79.90
2023-02-15T02:14:02.958Z,79.90
2023-02-15T02:16:48.919Z,80.00
2023-02-15T02:19:50.017Z,80.00
2023-02-15T02:22:54.070Z,80.00
2023-02-15T02:25:32.838Z,79.90
2023-02-15T02:28:27.123Z,79.90
2023-02-15T02:31:15.716Z,79.70
2023-02-15T02:34:07.377Z,79.90
2023-02-15T02:37:04.742Z,79.80
2023-02-15T02:39:38.798Z,79.80
2023-02-15T02:42:26.849Z,79.80
2023-02-15T02:45:06.900Z,79.50
2023-02-15T02:48:08.917Z,79.60
2023-02-15T02:50:35.650Z,79.60
2023-02-15T02:53:03.277Z,79.50
2023-02-15T02:55:31.133Z,79.50
2023-02-15T02:58:15.639Z,79.60
2023-02-15T03:01:06.762Z,79.40
2023-02-15T03:03:42.201Z,79.50
2023-02-15T03:06:36.869Z,79.40
2023-02-15T03:09:13.201Z,79.60
2023-02-15T03:11:39.905Z,79.40
2023-02-15T03:14:06.617Z,79.50
2023-02-15T03:16:34.442Z,79.20
2023-02-15T03:19:10.883Z,79.30
2023-02-15T03:22:04.903Z,79.30
2023-02-15T03:24:35.799Z,79.30
2023-02-15T03:27:04.345Z,79.20
2023-02-15T03:29:31.308Z,79.40
2023-02-15T03:32:00.671Z,79.40
2023-02-15T03:34:27.606Z,79.40
2023-02-15T03:36:58.046Z,79.20
2023-02-15T03:39:35.355Z,79.40
2023-02-15T03:42:05.969Z,79.50
2023-02-15T03:44:34.725Z,79.80
2023-02-15T03:47:16.689Z,79.60
2023-02-15T03:49:44.560Z,80.40
2023-02-15T03:52:11.429Z,79.50
2023-02-15T03:54:43.747Z,79.30
2023-02-15T03:57:31.451Z,79.30
2023-02-15T04:00:18.092Z,79.40
2023-02-15T04:03:10.914Z,79.20
2023-02-15T04:05:37.915Z,79.30
2023-02-15T04:08:05.676Z,79.20
2023-02-15T04:10:50.780Z,79.30
2023-02-15T04:13:17.489Z,79.40
2023-02-15T04:16:03.017Z,79.20
2023-02-15T04:19:14.907Z,79.10
2023-02-15T04:22:00.269Z,79.20
2023-02-15T04:24:45.519Z,78.90
2023-02-15T04:27:12.263Z,79.30
2023-02-15T04:29:38.982Z,79.00
2023-02-15T04:32:07.712Z,79.00
2023-02-15T04:34:34.519Z,78.70
2023-02-15T04:37:01.284Z,78.60
2023-02-15T04:39:27.994Z,78.80
2023-02-15T04:41:54.760Z,78.60
2023-02-15T04:44:21.473Z,78.50
2023-02-15T04:46:48.248Z,78.40
2023-02-15T04:49:15.120Z,78.30
2023-02-15T04:51:41.898Z,78.30
2023-02-15T04:54:09.200Z,78.20
2023-02-15T04:56:39.066Z,78.20
2023-02-15T04:59:06.008Z,78.10
2023-02-15T05:01:32.778Z,78.20
2023-02-15T05:03:59.511Z,78.00
2023-02-15T05:06:26.269Z,78.00
2023-02-15T05:08:52.994Z,78.00
2023-02-15T05:11:19.904Z,78.00
2023-02-15T05:13:46.632Z,78.20
2023-02-15T05:16:13.633Z,78.20
2023-02-15T05:18:41.014Z,78.10
2023-02-15T05:21:08.955Z,78.10
2023-02-15T05:23:35.997Z,77.80
2023-02-15T05:26:21.107Z,77.90
2023-02-15T05:28:47.845Z,78.00
2023-02-15T05:31:16.105Z,77.80
2023-02-15T05:33:43.405Z,77.70
2023-02-15T05:36:11.700Z,77.80
2023-02-15T05:38:38.916Z,77.80
2023-02-15T05:41:06.910Z,78.00
2023-02-15T05:43:33.945Z,78.00
2023-02-15T05:46:00.888Z,77.80
2023-02-15T05:48:28.107Z,77.70
2023-02-15T05:51:14.211Z,77.90
2023-02-15T05:53:41.826Z,78.10
2023-02-15T05:56:09.895Z,77.90
2023-02-15T05:58:38.896Z,78.00
2023-02-15T06:01:13.885Z,78.00
2023-02-15T06:03:41.999Z,77.80
2023-02-15T06:06:08.752Z,77.80
2023-02-15T06:08:36.260Z,77.60
2023-02-15T06:11:02.990Z,77.50
2023-02-15T06:13:29.851Z,77.40
2023-02-15T06:15:56.794Z,77.80
2023-02-15T06:18:23.595Z,77.70
2023-02-15T06:20:50.427Z,77.80
2023-02-15T06:23:17.298Z,77.40
2023-02-15T06:25:44.989Z,77.90
2023-02-15T06:28:13.572Z,78.10
2023-02-15T06:30:40.842Z,78.10
2023-02-15T06:33:08.292Z,78.00
2023-02-15T06:35:35.042Z,77.70
2023-02-15T06:38:01.799Z,77.80
2023-02-15T06:40:28.524Z,77.80
2023-02-15T06:42:55.276Z,78.00
2023-02-15T06:45:22.069Z,78.10
2023-02-15T06:47:48.813Z,78.00
2023-02-15T06:50:15.529Z,78.00
2023-02-15T06:52:43.858Z,78.00
2023-02-15T06:55:11.582Z,77.90
2023-02-15T06:57:38.349Z,77.70
2023-02-15T07:00:05.955Z,77.50
2023-02-15T07:02:32.925Z,77.60
2023-02-15T07:04:59.679Z,77.40
2023-02-15T07:07:26.466Z,77.30
2023-02-15T07:09:53.201Z,77.20
2023-02-15T07:12:38.335Z,77.10
2023-02-15T07:15:07.357Z,77.80
2023-02-15T07:17:36.417Z,76.90
2023-02-15T07:20:24.101Z,76.90
2023-02-15T07:22:51.054Z,77.60
2023-02-15T07:25:18.467Z,76.80
2023-02-15T07:27:45.961Z,76.80
2023-02-15T07:30:14.658Z,76.80
2023-02-15T07:33:04.817Z,76.50
2023-02-15T07:35:32.234Z,76.40
2023-02-15T07:37:58.957Z,76.30
2023-02-15T07:40:25.843Z,76.30
2023-02-15T07:42:57.186Z,76.10
2023-02-15T07:45:23.923Z,76.10
2023-02-15T07:47:50.694Z,75.90
2023-02-15T07:50:17.603Z,75.70
2023-02-15T07:52:44.504Z,75.70
2023-02-15T07:55:13.781Z,75.70
2023-02-15T07:57:45.353Z,75.30
2023-02-15T08:00:14.539Z,75.20
2023-02-15T08:02:41.875Z,75.10
2023-02-15T08:05:09.173Z,74.80
2023-02-15T08:07:36.008Z,74.90
2023-02-15T08:10:02.748Z,74.60
2023-02-15T08:12:29.740Z,74.70
2023-02-15T08:14:56.459Z,75.30
2023-02-15T08:17:23.808Z,74.60
2023-02-15T08:19:50.596Z,74.50
2023-02-15T08:22:17.353Z,74.30
2023-02-15T08:24:44.073Z,74.20
2023-02-15T08:27:11.905Z,74.10
2023-02-15T08:29:40.388Z,74.00
2023-02-15T08:32:10.356Z,74.00
2023-02-15T08:34:39.635Z,73.80
2023-02-15T08:37:07.054Z,73.90
2023-02-15T08:39:33.977Z,74.10
2023-02-15T08:42:00.710Z,74.10
2023-02-15T08:44:27.527Z,74.30
2023-02-15T08:46:55.663Z,74.60
2023-02-15T08:49:22.640Z,74.70
2023-02-15T08:51:49.547Z,75.50
2023-02-15T08:54:18.732Z,74.80
2023-02-15T08:56:45.701Z,74.80
2023-02-15T08:59:15.352Z,75.00
2023-02-15T09:01:43.966Z,75.10
2023-02-15T09:04:12.076Z,75.30
2023-02-15T09:06:39.482Z,75.10
2023-02-15T09:09:06.723Z,74.90
2023-02-15T09:11:42.413Z,74.90
2023-02-15T09:14:11.832Z,75.00
2023-02-15T09:16:39.018Z,75.00
2023-02-15T09:19:06.095Z,74.90
2023-02-15T09:21:33.347Z,74.80
2023-02-15T09:24:02.075Z,74.90
2023-02-15T09:26:30.259Z,74.80
2023-02-15T09:28:58.594Z,74.80
2023-02-15T09:31:31.658Z,74.90
2023-02-15T09:33:59.418Z,74.90
2023-02-15T09:36:31.370Z,74.70
2023-02-15T09:39:14.889Z,74.80
2023-02-15T09:41:47.752Z,74.90
2023-02-15T09:44:23.367Z,74.80
2023-02-15T09:46:53.648Z,74.90
2023-02-15T09:49:52.047Z,74.80
2023-02-15T09:52:44.719Z,74.90
2023-02-15T09:55:42.797Z,74.90
2023-02-15T09:58:27.540Z,74.90
2023-02-15T10:01:13.700Z,74.90
2023-02-15T10:04:09.811Z,75.60
2023-02-15T10:06:48.544Z,74.80
2023-02-15T10:09:20.832Z,74.80
2023-02-15T10:12:08.992Z,74.90
2023-02-15T10:14:45.832Z,74.80
2023-02-15T10:17:31.478Z,74.90
2023-02-15T10:20:30.079Z,74.80
2023-02-15T10:23:05.650Z,74.80
2023-02-15T10:26:03.261Z,74.80
2023-02-15T10:28:36.095Z,74.90
2023-02-15T10:31:10.219Z,74.90
2023-02-15T10:33:44.431Z,74.90
2023-02-15T10:36:29.983Z,74.90
2023-02-15T10:39:03.851Z,74.90
2023-02-15T10:41:59.042Z,74.90
2023-02-15T10:45:13.598Z,76.00
2023-02-15T10:47:52.390Z,75.80
2023-02-15T10:50:31.060Z,76.20
2023-02-15T10:53:12.758Z,76.20
2023-02-15T10:55:53.608Z,75.80
2023-02-15T10:58:37.184Z,75.70
2023-02-15T11:01:31.650Z,75.60
2023-02-15T11:04:30.600Z,75.60
2023-02-15T11:07:20.598Z,75.70
2023-02-15T11:10:00.995Z,75.80
2023-02-15T11:12:28.609Z,76.20
2023-02-15T11:15:19.628Z,76.60
2023-02-15T11:17:53.218Z,76.60
2023-02-15T11:20:20.289Z,77.80
2023-02-15T11:22:49.582Z,77.30
2023-02-15T11:25:20.412Z,77.50
2023-02-15T11:27:47.987Z,77.70
2023-02-15T11:30:15.671Z,77.70
2023-02-15T11:32:50.240Z,77.80
2023-02-15T11:35:31.781Z,77.70
2023-02-15T11:38:12.617Z,77.50
2023-02-15T11:41:02.392Z,77.50
2023-02-15T11:43:31.494Z,77.40
2023-02-15T11:45:58.275Z,77.30
2023-02-15T11:48:25.052Z,77.30
2023-02-15T11:50:51.777Z,77.20
2023-02-15T11:53:20.185Z,77.30
2023-02-15T11:55:47.579Z,77.10
2023-02-15T11:58:30.976Z,77.20
2023-02-15T12:01:03.845Z,77.50
2023-02-15T12:03:37.775Z,77.10
2023-02-15T12:06:05.239Z,77.10
2023-02-15T12:08:39.648Z,77.00
2023-02-15T12:11:32.699Z,77.10
2023-02-15T12:14:01.049Z,76.90
2023-02-15T12:16:28.715Z,77.00
2023-02-15T12:18:59.986Z,77.00
2023-02-15T12:21:35.205Z,77.00
2023-02-15T12:24:18.820Z,77.20
2023-02-15T12:26:45.598Z,77.30
2023-02-15T12:29:18.477Z,77.40
2023-02-15T12:31:46.499Z,77.50
2023-02-15T12:34:17.326Z,77.40
2023-02-15T12:36:51.788Z,77.60
2023-02-15T12:39:21.681Z,77.40
2023-02-15T12:41:58.717Z,77.40
2023-02-15T12:44:26.947Z,77.30
2023-02-15T12:47:17.738Z,77.20
2023-02-15T12:49:48.201Z,77.10
2023-02-15T12:52:23.465Z,76.90
2023-02-15T12:54:50.294Z,77.00
2023-02-15T12:57:30.267Z,76.90
2023-02-15T13:00:05.836Z,76.90
2023-02-15T13:02:41.490Z,76.90
2023-02-15T13:05:14.550Z,77.00
2023-02-15T13:07:44.691Z,76.90
2023-02-15T13:10:31.000Z,77.10
2023-02-15T13:12:58.853Z,76.90
2023-02-15T13:15:27.555Z,77.10
2023-02-15T13:17:54.353Z,77.00
2023-02-15T13:20:23.850Z,77.10
2023-02-15T13:22:51.741Z,77.10
2023-02-15T13:25:22.581Z,77.10
2023-02-15T13:27:58.481Z,77.20
2023-02-15T13:30:25.933Z,77.30
2023-02-15T13:32:56.052Z,77.30
2023-02-15T13:35:22.843Z,77.30
2023-02-15T13:38:08.110Z,77.30
2023-02-15T13:40:43.523Z,77.40
2023-02-15T13:43:28.939Z,77.30
2023-02-15T13:46:22.750Z,77.40
2023-02-15T13:49:13.151Z,76.60
2023-02-15T13:51:53.638Z,76.70
2023-02-15T13:54:28.565Z,76.70
2023-02-15T13:57:07.260Z,76.80
2023-02-15T13:59:45.849Z,76.80
2023-02-15T14:02:13.639Z,76.80
2023-02-15T14:05:03.459Z,76.90
2023-02-15T14:07:48.996Z,76.80
2023-02-15T14:10:38.793Z,76.60
2023-02-15T14:13:16.796Z,79.10
2023-02-15T14:16:15.094Z,77.50
2023-02-15T14:18:52.217Z,76.50
2023-02-15T14:21:33.844Z,77.20
2023-02-15T14:24:09.365Z,77.90
2023-02-15T14:26:53.921Z,77.80
2023-02-15T14:29:26.669Z,77.80
2023-02-15T14:32:10.904Z,77.50
2023-02-15T14:34:50.160Z,76.90
2023-02-15T14:37:39.584Z,76.80
2023-02-15T14:40:50.008Z,76.50
2023-02-15T14:43:25.673Z,76.50
2023-02-15T14:46:02.691Z,76.40
2023-02-15T14:48:45.045Z,75.00
2023-02-15T14:51:52.898Z,37.50
2023-02-15T14:54:23.061Z,36.90
2023-02-15T14:57:02.376Z,39.70
2023-02-15T14:59:41.407Z,37.60
2023-02-15T15:02:08.745Z,35.20
2023-02-15T15:04:38.592Z,35.10
2023-02-15T15:07:18.426Z,35.50
2023-02-15T15:09:48.155Z,36.00
2023-02-15T15:12:26.742Z,37.60
2023-02-15T15:14:55.100Z,39.70
2023-02-15T15:17:34.100Z,41.30
2023-02-15T15:20:09.404Z,42.50
2023-02-15T15:22:36.436Z,43.90
2023-02-15T15:25:05.467Z,45.20
2023-02-15T15:27:48.647Z,45.90
2023-02-15T15:30:16.674Z,46.60
2023-02-15T15:32:57.692Z,47.80
2023-02-15T15:36:07.110Z,48.70
2023-02-15T15:38:57.102Z,49.40
2023-02-15T15:41:39.250Z,50.30
2023-02-15T15:44:31.252Z,50.90
2023-02-15T15:47:03.868Z,51.40
2023-02-15T15:49:32.592Z,52.00
2023-02-15T15:52:04.025Z,52.40
2023-02-15T15:54:30.739Z,52.90
2023-02-15T15:57:02.352Z,53.30
2023-02-15T15:59:31.028Z,53.70
2023-02-15T16:01:57.840Z,54.10
2023-02-15T16:04:30.753Z,54.40
2023-02-15T16:06:58.397Z,54.80
2023-02-15T16:09:26.889Z,55.80
2023-02-15T16:12:02.769Z,55.40
2023-02-15T16:14:36.200Z,55.80
2023-02-15T16:17:05.168Z,56.10
2023-02-15T16:19:37.412Z,56.40
2023-02-15T16:22:04.301Z,56.70
2023-02-15T16:24:50.082Z,57.30
2023-02-15T16:27:44.638Z,57.40
2023-02-15T16:30:37.185Z,58.10
2023-02-15T16:33:12.034Z,59.50
2023-02-15T16:35:55.028Z,60.70
2023-02-15T16:38:43.929Z,59.70
2023-02-15T16:41:24.873Z,60.10
2023-02-15T16:43:51.866Z,60.60
2023-02-15T16:46:26.438Z,60.40
2023-02-15T16:48:53.742Z,60.70
2023-02-15T16:51:23.115Z,60.70
2023-02-15T16:53:49.919Z,60.60
2023-02-15T16:56:18.800Z,60.80
2023-02-15T16:58:47.294Z,60.90
2023-02-15T17:01:16.915Z,60.70
2023-02-15T17:03:43.755Z,60.90
2023-02-15T17:06:27.290Z,61.30
2023-02-15T17:09:04.707Z,61.30
2023-02-15T17:11:41.717Z,61.20
2023-02-15T17:14:10.124Z,61.30
2023-02-15T17:16:41.918Z,61.40
2023-02-15T17:19:20.776Z,61.50
2023-02-15T17:21:59.358Z,61.80
2023-02-15T17:24:31.893Z,62.00
2023-02-15T17:27:01.461Z,61.90
2023-02-15T17:29:52.842Z,61.90
2023-02-15T17:32:24.961Z,61.80
2023-02-15T17:35:01.126Z,62.10
2023-02-15T17:37:43.579Z,62.50
2023-02-15T17:40:20.736Z,62.20
2023-02-15T17:42:47.925Z,62.40
2023-02-15T17:45:15.925Z,62.70
2023-02-15T17:47:42.858Z,62.50
2023-02-15T17:50:22.518Z,63.10
2023-02-15T17:52:49.539Z,63.60
2023-02-15T17:55:54.434Z,63.80
2023-02-15T17:58:21.977Z,63.60
2023-02-15T18:01:11.551Z,64.40
2023-02-15T18:04:10.216Z,63.60
2023-02-15T18:06:57.103Z,64.60
2023-02-15T18:09:42.234Z,64.40
2023-02-15T18:12:33.809Z,63.90
2023-02-15T18:15:01.435Z,63.40
2023-02-15T18:17:42.683Z,65.90
2023-02-15T18:20:18.522Z,64.90
2023-02-15T18:22:49.236Z,64.30
2023-02-15T18:25:18.405Z,64.30
2023-02-15T18:27:46.250Z,64.50
2023-02-15T18:30:18.878Z,64.60
2023-02-15T18:32:46.937Z,65.40
2023-02-15T18:35:20.918Z,65.10
2023-02-15T18:37:48.385Z,64.60
2023-02-15T18:40:19.562Z,65.20
2023-02-15T18:42:49.449Z,65.80
2023-02-15T18:45:21.189Z,66.50
2023-02-15T18:47:51.389Z,66.70
2023-02-15T18:50:20.351Z,67.50
2023-02-15T18:52:50.548Z,66.80
2023-02-15T18:55:22.026Z,67.20
2023-02-15T18:57:49.912Z,67.50
2023-02-15T19:00:19.459Z,67.80
2023-02-15T19:02:47.637Z,67.50
2023-02-15T19:05:17.698Z,67.40
2023-02-15T19:07:48.280Z,67.30
2023-02-15T19:10:20.554Z,67.30
2023-02-15T19:12:48.907Z,67.50
2023-02-15T19:15:20.159Z,67.90
2023-02-15T19:17:52.698Z,67.40
2023-02-15T19:20:39.896Z,67.30
2023-02-15T19:23:19.586Z,68.30
2023-02-15T19:25:48.910Z,69.30
2023-02-15T19:28:19.974Z,68.60
2023-02-15T19:30:47.562Z,70.20
2023-02-15T19:33:20.670Z,72.80
2023-02-15T19:35:52.311Z,71.30
2023-02-15T19:38:20.884Z,71.40
2023-02-15T19:40:48.697Z,71.10
2023-02-15T19:43:17.688Z,70.90
2023-02-15T19:45:45.115Z,71.20
2023-02-15T19:48:14.062Z,71.20
2023-02-15T19:50:41.032Z,71.20
2023-02-15T19:53:35.668Z,71.20
2023-02-15T19:56:02.767Z,71.00
2023-02-15T19:58:29.980Z,71.40
2023-02-15T20:00:56.789Z,71.20
2023-02-15T20:03:23.752Z,70.80
2023-02-15T20:05:50.567Z,70.80
2023-02-15T20:08:19.884Z,70.40
2023-02-15T20:10:46.810Z,69.60
2023-02-15T20:13:14.957Z,69.30
2023-02-15T20:15:41.837Z,69.10
2023-02-15T20:18:08.719Z,69.20
2023-02-15T20:20:45.403Z,69.20
2023-02-15T20:23:27.445Z,69.60
2023-02-15T20:25:57.272Z,69.80
2023-02-15T20:28:25.713Z,69.40
2023-02-15T20:30:52.589Z,69.20
2023-02-15T20:33:21.130Z,69.20
2023-02-15T20:35:49.491Z,69.00
2023-02-15T20:38:28.008Z,68.90
2023-02-15T20:41:13.765Z,68.70
2023-02-15T20:43:40.586Z,69.40
2023-02-15T20:46:07.817Z,69.30
2023-02-15T20:48:35.965Z,68.90
2023-02-15T20:51:03.185Z,69.40
2023-02-15T20:53:30.177Z,70.20
2023-02-15T20:55:57.022Z,71.00
2023-02-15T20:58:28.331Z,71.60
2023-02-15T21:00:56.042Z,71.80
2023-02-15T21:03:30.614Z,70.90
2023-02-15T21:05:58.406Z,71.70
2023-02-15T21:08:25.377Z,70.90
2023-02-15T21:10:52.460Z,70.70
2023-02-15T21:13:24.946Z,70.70
2023-02-15T21:15:52.212Z,70.60
2023-02-15T21:18:22.930Z,70.40
2023-02-15T21:20:54.650Z,70.40
2023-02-15T21:23:23.887Z,70.40
2023-02-15T21:25:51.449Z,70.40
2023-02-15T21:28:24.019Z,70.30
2023-02-15T21:30:51.442Z,70.20
2023-02-15T21:33:18.752Z,70.30
2023-02-15T21:35:47.647Z,70.50
2023-02-15T21:38:16.015Z,71.00
2023-02-15T21:40:43.574Z,70.00
2023-02-15T21:43:33.641Z,69.70
2023-02-15T21:46:24.479Z,69.50
2023-02-15T21:48:52.079Z,69.50
2023-02-15T21:51:37.307Z,69.50
2023-02-15T21:54:04.119Z,69.30
2023-02-15T21:56:30.838Z,69.00
2023-02-15T21:58:57.543Z,69.00
2023-02-15T22:01:27.742Z,69.20
2023-02-15T22:03:55.604Z,69.30
2023-02-15T22:06:23.338Z,69.30
2023-02-15T22:08:51.594Z,69.50
2023-02-15T22:11:23.315Z,70.30
2023-02-15T22:13:50.158Z,69.50
2023-02-15T22:16:20.140Z,69.40
2023-02-15T22:18:48.273Z,69.60
2023-02-15T22:21:19.324Z,69.60
2023-02-15T22:23:47.349Z,69.80
2023-02-15T22:26:21.583Z,69.80
2023-02-15T22:28:48.888Z,69.80
2023-02-15T22:31:24.231Z,70.00
2023-02-15T22:33:52.315Z,70.20
2023-02-15T22:36:27.688Z,70.30
2023-02-15T22:38:55.163Z,70.50
2023-02-15T22:41:25.412Z,70.60
2023-02-15T22:43:53.990Z,70.70
2023-02-15T22:46:23.449Z,70.70
2023-02-15T22:48:50.717Z,70.70
2023-02-15T22:51:25.482Z,70.70
2023-02-15T22:53:55.095Z,71.30
2023-02-15T22:56:26.800Z,71.00
2023-02-15T22:59:15.115Z,71.00
2023-02-15T23:01:41.895Z,70.90
2023-02-15T23:04:18.564Z,71.10
2023-02-15T23:06:45.651Z,71.20
2023-02-15T23:09:12.644Z,71.30
2023-02-15T23:11:39.473Z,71.40
2023-02-15T23:14:06.314Z,71.50
2023-02-15T23:16:34.880Z,71.50
2023-02-15T23:19:01.852Z,71.50
2023-02-15T23:21:32.686Z,71.50
2023-02-15T23:24:17.920Z,71.60
2023-02-15T23:26:44.881Z,71.60
2023-02-15T23:29:16.686Z,71.60
2023-02-15T23:31:45.102Z,71.60
2023-02-15T23:34:30.279Z,71.60
2023-02-15T23:36:57.901Z,71.70
2023-02-15T23:39:46.678Z,71.70
2023-02-15T23:42:15.972Z,71.60
2023-02-15T23:44:44.107Z,71.60
2023-02-15T23:47:41.706Z,71.60
2023-02-15T23:50:34.752Z,71.60
2023-02-15T23:53:01.468Z,71.70
2023-02-15T23:55:38.451Z,71.60
2023-02-15T23:58:06.146Z,71.60
